createdAt,value
2018-05-25T00:00:47.366Z,17.97
2018-05-25T00:03:15.497Z,17.77
2018-05-25T00:05:43.633Z,17.77
2018-05-25T00:08:11.780Z,20.17
2018-05-25T00:10:39.922Z,19.27
2018-05-25T00:13:08.034Z,20.70
2018-05-25T00:15:39.649Z,20.03
2018-05-25T00:18:07.771Z,21.33
2018-05-25T00:20:35.916Z,18.80
2018-05-25T00:23:04.079Z,21.37
2018-05-25T00:25:32.187Z,19.30
2018-05-25T00:28:00.323Z,19.37
2018-05-25T00:30:28.470Z,18.73
2018-05-25T00:32:56.575Z,20.77
2018-05-25T00:35:24.720Z,19.17
2018-05-25T00:37:52.888Z,21.53
2018-05-25T00:40:21.290Z,21.77
2018-05-25T00:42:49.432Z,23.57
2018-05-25T00:45:17.557Z,21.97
2018-05-25T00:47:45.684Z,21.83
2018-05-25T00:50:13.808Z,22.27
2018-05-25T00:52:42.442Z,21.23
2018-05-25T00:55:22.386Z,21.73
2018-05-25T00:57:50.513Z,20.73
2018-05-25T01:00:18.667Z,22.70
2018-05-25T01:02:46.792Z,23.13
2018-05-25T01:05:14.933Z,25.83
2018-05-25T01:07:43.043Z,22.77
2018-05-25T01:10:11.191Z,26.27
2018-05-25T01:12:39.325Z,23.73
2018-05-25T01:15:07.439Z,22.83
2018-05-25T01:17:35.607Z,23.60
2018-05-25T01:20:03.724Z,23.50
2018-05-25T01:22:31.912Z,22.00
2018-05-25T01:25:00.059Z,24.20
2018-05-25T01:27:28.187Z,25.40
2018-05-25T01:29:56.337Z,22.50
2018-05-25T01:32:24.462Z,24.40
2018-05-25T01:34:52.581Z,23.10
2018-05-25T01:37:20.721Z,22.83
2018-05-25T01:39:48.846Z,23.63
2018-05-25T01:42:16.985Z,22.67
2018-05-25T01:44:45.108Z,22.97
2018-05-25T01:47:13.241Z,23.53
2018-05-25T01:49:41.391Z,23.30
2018-05-25T01:52:09.498Z,22.47
2018-05-25T01:54:37.645Z,23.10
2018-05-25T01:57:05.804Z,24.87
2018-05-25T01:59:33.930Z,23.90
2018-05-25T02:02:02.073Z,23.20
2018-05-25T02:04:30.215Z,23.80
2018-05-25T02:06:58.354Z,23.97
2018-05-25T02:09:26.484Z,22.70
2018-05-25T02:11:54.595Z,21.23
2018-05-25T02:14:22.737Z,23.07
2018-05-25T02:16:50.866Z,22.70
2018-05-25T02:19:19.385Z,23.50
2018-05-25T02:21:47.623Z,23.97
2018-05-25T02:24:15.750Z,22.27
2018-05-25T02:26:43.885Z,22.37
2018-05-25T02:29:12.032Z,23.20
2018-05-25T02:31:40.169Z,26.73
2018-05-25T02:34:08.301Z,21.87
2018-05-25T02:36:36.425Z,22.70
2018-05-25T02:39:04.572Z,23.47
2018-05-25T02:41:32.704Z,23.40
2018-05-25T02:44:00.857Z,23.27
2018-05-25T02:46:28.981Z,22.40
2018-05-25T02:48:57.127Z,26.33
2018-05-25T02:51:25.261Z,23.37
2018-05-25T02:53:53.375Z,22.70
2018-05-25T02:56:21.530Z,22.93
2018-05-25T02:58:49.666Z,22.53
2018-05-25T03:01:17.789Z,23.73
2018-05-25T03:03:45.912Z,22.67
2018-05-25T03:06:14.033Z,23.83
2018-05-25T03:08:42.181Z,24.30
2018-05-25T03:11:10.313Z,25.40
2018-05-25T03:13:38.451Z,23.13
2018-05-25T03:16:06.598Z,24.53
2018-05-25T03:18:35.070Z,23.83
2018-05-25T03:21:03.653Z,24.53
2018-05-25T03:23:31.822Z,24.70
2018-05-25T03:25:59.945Z,25.97
2018-05-25T03:28:28.085Z,24.63
2018-05-25T03:30:56.214Z,23.87
2018-05-25T03:33:24.362Z,24.13
2018-05-25T03:35:52.520Z,24.10
2018-05-25T03:38:20.648Z,24.17
2018-05-25T03:40:48.782Z,24.07
2018-05-25T03:43:16.897Z,26.47
2018-05-25T03:45:45.048Z,24.17
2018-05-25T03:48:13.177Z,23.27
2018-05-25T03:50:41.306Z,24.70
2018-05-25T03:53:09.443Z,23.73
2018-05-25T03:55:37.574Z,24.67
2018-05-25T03:58:05.735Z,25.37
2018-05-25T04:00:45.773Z,26.30
2018-05-25T04:03:15.072Z,23.57
2018-05-25T04:05:43.209Z,24.77
2018-05-25T04:08:11.351Z,24.80
2018-05-25T04:10:39.495Z,24.67
2018-05-25T04:13:07.610Z,27.77
2018-05-25T04:15:35.894Z,26.07
2018-05-25T04:18:04.066Z,24.63
2018-05-25T04:20:32.250Z,24.83
2018-05-25T04:23:00.403Z,25.50
2018-05-25T04:25:28.525Z,26.10
2018-05-25T04:27:56.671Z,25.83
2018-05-25T04:30:24.831Z,26.27
2018-05-25T04:32:52.977Z,26.77
2018-05-25T04:35:21.093Z,27.07
2018-05-25T04:37:49.229Z,25.97
2018-05-25T04:40:17.369Z,25.73
2018-05-25T04:42:45.495Z,26.33
2018-05-25T04:45:13.690Z,27.13
2018-05-25T04:47:41.835Z,25.93
2018-05-25T04:50:09.957Z,25.67
2018-05-25T04:52:38.074Z,26.57
2018-05-25T04:55:06.227Z,28.03
2018-05-25T04:57:34.390Z,24.90
2018-05-25T05:00:02.516Z,25.27
2018-05-25T05:02:30.639Z,25.80
2018-05-25T05:04:58.816Z,26.07
2018-05-25T05:07:26.901Z,24.33
2018-05-25T05:09:55.023Z,25.40
2018-05-25T05:12:23.154Z,25.50
2018-05-25T05:14:51.351Z,25.07
2018-05-25T05:17:19.428Z,25.87
2018-05-25T05:19:47.556Z,28.37
2018-05-25T05:22:15.703Z,28.73
2018-05-25T05:24:43.824Z,28.73
2018-05-25T05:27:12.136Z,27.20
2018-05-25T05:29:40.261Z,27.70
2018-05-25T05:32:08.382Z,28.90
2018-05-25T05:34:36.518Z,27.33
2018-05-25T05:37:04.645Z,28.97
2018-05-25T05:39:32.778Z,29.17
2018-05-25T05:42:00.909Z,29.27
2018-05-25T05:44:29.052Z,26.40
2018-05-25T05:46:57.180Z,26.43
2018-05-25T05:49:25.302Z,25.87
2018-05-25T05:51:53.440Z,23.80
2018-05-25T05:54:21.562Z,23.53
2018-05-25T05:56:49.693Z,23.53
2018-05-25T05:59:17.842Z,22.83
2018-05-25T06:01:45.996Z,22.10
2018-05-25T06:04:14.140Z,23.17
2018-05-25T06:06:42.243Z,22.13
2018-05-25T06:09:10.391Z,22.50
2018-05-25T06:11:38.510Z,22.73
2018-05-25T06:14:06.651Z,24.60
2018-05-25T06:16:34.779Z,24.87
2018-05-25T06:19:02.925Z,22.03
2018-05-25T06:21:31.015Z,22.70
2018-05-25T06:23:59.153Z,22.80
2018-05-25T06:26:27.271Z,23.40
2018-05-25T06:28:55.438Z,19.33
2018-05-25T06:31:23.553Z,21.60
2018-05-25T06:33:51.682Z,21.67
2018-05-25T06:36:19.824Z,24.60
2018-05-25T06:38:47.927Z,23.07
2018-05-25T06:41:16.112Z,20.37
2018-05-25T06:43:44.247Z,24.70
2018-05-25T06:46:12.354Z,20.93
2018-05-25T06:48:40.493Z,23.07
2018-05-25T06:51:08.635Z,23.10
2018-05-25T06:53:36.763Z,21.30
2018-05-25T06:56:04.897Z,22.93
2018-05-25T06:58:33.044Z,23.43
2018-05-25T07:01:01.181Z,22.67
2018-05-25T07:03:29.300Z,21.97
2018-05-25T07:05:57.669Z,24.50
2018-05-25T07:08:25.801Z,21.57
2018-05-25T07:10:53.920Z,21.77
2018-05-25T07:13:25.543Z,21.67
2018-05-25T07:15:53.661Z,22.93
2018-05-25T07:18:21.787Z,21.80
2018-05-25T07:20:49.909Z,20.40
2018-05-25T07:23:18.091Z,20.20
2018-05-25T07:25:46.277Z,20.90
2018-05-25T07:28:14.416Z,22.03
2018-05-25T07:30:42.552Z,23.80
2018-05-25T07:33:10.666Z,20.67
2018-05-25T07:35:38.891Z,18.30
2018-05-25T07:38:06.990Z,22.80
2018-05-25T07:40:35.134Z,22.60
2018-05-25T07:43:03.300Z,26.83
2018-05-25T07:45:31.425Z,20.73
2018-05-25T07:47:59.542Z,20.80
2018-05-25T07:50:30.153Z,20.40
2018-05-25T07:52:58.296Z,20.30
2018-05-25T07:55:26.435Z,21.50
2018-05-25T07:57:54.559Z,18.13
2018-05-25T08:00:22.695Z,23.80
2018-05-25T08:02:50.829Z,19.80
2018-05-25T08:05:18.953Z,19.83
2018-05-25T08:07:47.108Z,19.57
2018-05-25T08:10:15.241Z,17.93
2018-05-25T08:12:43.373Z,22.50
2018-05-25T08:15:11.505Z,21.57
2018-05-25T08:17:39.633Z,19.27
2018-05-25T08:20:07.771Z,20.20
2018-05-25T08:22:35.893Z,19.90
2018-05-25T08:25:04.051Z,20.53
2018-05-25T08:27:32.173Z,23.90
2018-05-25T08:30:00.305Z,18.27
2018-05-25T08:32:30.315Z,22.10
2018-05-25T08:34:58.457Z,20.27
2018-05-25T08:37:26.728Z,21.40
2018-05-25T08:39:54.865Z,21.13
2018-05-25T08:42:23.001Z,19.93
2018-05-25T08:44:51.112Z,20.87
2018-05-25T08:47:19.364Z,24.13
2018-05-25T08:49:47.500Z,20.97
2018-05-25T08:52:15.661Z,19.87
2018-05-25T08:54:43.797Z,20.67
2018-05-25T08:57:11.953Z,17.70
2018-05-25T08:59:40.070Z,19.73
2018-05-25T09:02:08.205Z,19.10
2018-05-25T09:04:36.350Z,22.97
2018-05-25T09:07:04.507Z,23.93
2018-05-25T09:09:32.644Z,20.47
2018-05-25T09:12:00.762Z,23.17
2018-05-25T09:14:28.889Z,21.23
2018-05-25T09:16:57.051Z,21.30
2018-05-25T09:19:25.167Z,17.70
2018-05-25T09:21:53.343Z,20.37
2018-05-25T09:24:21.430Z,22.50
2018-05-25T09:26:49.575Z,23.50
2018-05-25T09:29:17.705Z,24.83
2018-05-25T09:31:45.853Z,23.60
2018-05-25T09:34:13.988Z,18.60
2018-05-25T09:36:42.144Z,19.77
2018-05-25T09:39:10.299Z,18.30
2018-05-25T09:41:38.440Z,17.90
2018-05-25T09:44:06.587Z,16.00
2018-05-25T09:46:34.714Z,15.13
2018-05-25T09:49:02.856Z,16.63
2018-05-25T09:51:30.998Z,15.53
2018-05-25T09:53:59.144Z,17.33
2018-05-25T09:56:27.256Z,19.37
2018-05-25T09:58:55.440Z,16.50
2018-05-25T10:01:23.550Z,18.17
2018-05-25T10:03:51.692Z,17.50
2018-05-25T10:06:19.832Z,17.70
2018-05-25T10:08:47.972Z,18.80
2018-05-25T10:11:16.182Z,17.77
2018-05-25T10:13:44.310Z,15.80
2018-05-25T10:16:12.456Z,15.63
2018-05-25T10:18:40.570Z,19.40
2018-05-25T10:21:09.613Z,14.53
2018-05-25T10:23:37.759Z,16.40
2018-05-25T10:26:05.896Z,18.80
2018-05-25T10:28:34.054Z,15.90
2018-05-25T10:31:02.201Z,14.20
2018-05-25T10:33:30.316Z,15.53
2018-05-25T10:35:58.462Z,14.37
2018-05-25T10:38:26.584Z,13.47
2018-05-25T10:40:54.720Z,15.13
2018-05-25T10:43:22.888Z,13.30
2018-05-25T10:45:51.047Z,14.40
2018-05-25T10:48:19.151Z,14.70
2018-05-25T10:50:47.314Z,13.77
2018-05-25T10:53:15.438Z,12.70
2018-05-25T10:55:43.561Z,13.27
2018-05-25T10:58:11.706Z,13.33
2018-05-25T11:00:39.830Z,16.20
2018-05-25T11:03:07.957Z,15.07
2018-05-25T11:05:36.173Z,18.73
2018-05-25T11:08:04.283Z,19.03
2018-05-25T11:10:32.406Z,15.10
2018-05-25T11:13:00.551Z,17.27
2018-05-25T11:15:29.620Z,16.27
2018-05-25T11:17:57.754Z,16.17
2018-05-25T11:20:25.863Z,15.43
2018-05-25T11:22:53.998Z,18.83
2018-05-25T11:25:22.137Z,16.77
2018-05-25T11:27:50.280Z,15.37
2018-05-25T11:30:18.428Z,14.17
2018-05-25T11:32:46.578Z,14.37
2018-05-25T11:35:14.725Z,13.50
2018-05-25T11:37:42.876Z,14.30
2018-05-25T11:40:11.012Z,13.70
2018-05-25T11:42:39.156Z,13.23
2018-05-25T11:45:07.294Z,12.13
2018-05-25T11:47:35.415Z,13.80
2018-05-25T11:50:03.561Z,14.17
2018-05-25T11:52:32.283Z,12.80
2018-05-25T11:55:00.409Z,13.70
2018-05-25T11:57:28.535Z,13.10
2018-05-25T11:59:56.699Z,13.40
2018-05-25T12:02:24.821Z,11.77
2018-05-25T12:04:52.971Z,13.13
2018-05-25T12:07:21.102Z,13.10
2018-05-25T12:09:49.248Z,12.60
2018-05-25T12:12:17.380Z,12.97
2018-05-25T12:14:45.509Z,13.53
2018-05-25T12:17:13.670Z,12.47
2018-05-25T12:19:41.792Z,13.60
2018-05-25T12:22:09.911Z,12.47
2018-05-25T12:24:38.072Z,13.60
2018-05-25T12:27:06.188Z,12.70
2018-05-25T12:29:34.323Z,10.60
2018-05-25T12:32:02.478Z,10.27
2018-05-25T12:34:30.606Z,10.73
2018-05-25T12:36:58.711Z,9.93
2018-05-25T12:39:26.837Z,11.27
2018-05-25T12:41:54.984Z,11.53
2018-05-25T12:44:23.136Z,9.70
2018-05-25T12:46:51.305Z,11.87
2018-05-25T12:49:19.470Z,12.37
2018-05-25T12:51:47.593Z,12.23
2018-05-25T12:54:15.753Z,12.17
2018-05-25T12:56:43.926Z,12.47
2018-05-25T12:59:12.024Z,12.47
2018-05-25T13:01:40.154Z,11.33
2018-05-25T13:04:08.274Z,11.77
2018-05-25T13:06:36.394Z,13.00
2018-05-25T13:09:04.551Z,11.37
2018-05-25T13:11:32.693Z,11.17
2018-05-25T13:14:00.848Z,11.40
2018-05-25T13:16:28.944Z,11.13
2018-05-25T13:18:57.112Z,12.53
2018-05-25T13:21:25.233Z,12.47
2018-05-25T13:23:53.346Z,12.80
2018-05-25T13:26:24.818Z,12.30
2018-05-25T13:28:52.953Z,11.83
2018-05-25T13:31:21.054Z,13.33
2018-05-25T13:33:49.182Z,13.03
2018-05-25T13:36:17.336Z,12.03
2018-05-25T13:38:45.496Z,14.87
2018-05-25T13:41:13.647Z,12.87
2018-05-25T13:43:41.796Z,11.10
2018-05-25T13:46:09.917Z,10.43
2018-05-25T13:48:38.063Z,10.50
2018-05-25T13:51:06.176Z,11.00
2018-05-25T13:53:34.283Z,10.77
2018-05-25T13:56:02.413Z,10.83
2018-05-25T13:58:30.537Z,10.13
2018-05-25T14:00:58.659Z,9.60
2018-05-25T14:03:26.771Z,10.10
2018-05-25T14:05:54.910Z,10.07
2018-05-25T14:08:23.003Z,8.77
2018-05-25T14:10:51.159Z,8.73
2018-05-25T14:13:19.258Z,9.40
2018-05-25T14:15:47.408Z,9.90
2018-05-25T14:18:15.546Z,8.80
2018-05-25T14:20:43.685Z,9.73
2018-05-25T14:23:11.886Z,11.10
2018-05-25T14:25:40.026Z,10.53
2018-05-25T14:28:08.142Z,10.97
2018-05-25T14:30:36.269Z,11.13
2018-05-25T14:33:04.405Z,11.10
2018-05-25T14:35:32.552Z,11.73
2018-05-25T14:38:00.698Z,11.20
2018-05-25T14:40:28.810Z,9.63
2018-05-25T14:42:56.991Z,11.07
2018-05-25T14:45:28.365Z,10.60
2018-05-25T14:47:56.493Z,10.57
2018-05-25T14:50:24.635Z,11.30
2018-05-25T14:52:52.760Z,10.77
2018-05-25T14:55:20.896Z,10.47
2018-05-25T14:57:49.115Z,10.97
2018-05-25T15:00:17.237Z,10.90
2018-05-25T15:02:45.369Z,9.43
2018-05-25T15:05:13.546Z,10.70
2018-05-25T15:07:41.689Z,9.93
2018-05-25T15:10:09.840Z,10.30
2018-05-25T15:12:37.993Z,10.63
2018-05-25T15:15:06.129Z,10.37
2018-05-25T15:17:34.273Z,10.93
2018-05-25T15:20:02.378Z,11.80
2018-05-25T15:22:30.505Z,10.10
2018-05-25T15:24:58.633Z,9.30
2018-05-25T15:27:26.761Z,16.30
2018-05-25T15:29:54.901Z,14.03
2018-05-25T15:32:23.049Z,14.30
2018-05-25T15:34:51.179Z,15.30
2018-05-25T15:37:19.352Z,19.10
2018-05-25T15:39:47.488Z,15.80
2018-05-25T15:42:15.608Z,11.67
2018-05-25T15:44:43.726Z,11.30
2018-05-25T15:47:11.862Z,11.37
2018-05-25T15:49:40.006Z,12.43
2018-05-25T15:52:08.119Z,12.07
2018-05-25T15:54:36.264Z,12.90
2018-05-25T15:57:04.404Z,10.53
2018-05-25T15:59:32.544Z,10.83
2018-05-25T16:02:01.119Z,10.17
2018-05-25T16:04:29.255Z,9.70
2018-05-25T16:06:57.399Z,9.83
2018-05-25T16:09:25.531Z,9.80
2018-05-25T16:11:53.661Z,10.03
2018-05-25T16:14:21.869Z,9.20
2018-05-25T16:16:49.961Z,9.27
2018-05-25T16:19:18.096Z,11.13
2018-05-25T16:21:46.223Z,10.33
2018-05-25T16:24:14.388Z,10.97
2018-05-25T16:26:42.505Z,11.77
2018-05-25T16:29:10.641Z,11.47
2018-05-25T16:31:38.781Z,11.93
2018-05-25T16:34:06.930Z,11.77
2018-05-25T16:36:35.007Z,10.30
2018-05-25T16:39:03.144Z,12.17
2018-05-25T16:41:31.274Z,10.03
2018-05-25T16:43:59.392Z,9.83
2018-05-25T16:46:27.549Z,9.63
2018-05-25T16:48:55.699Z,9.43
2018-05-25T16:51:23.831Z,8.60
2018-05-25T16:53:51.994Z,9.83
2018-05-25T16:56:20.104Z,9.30
2018-05-25T16:58:48.222Z,8.70
2018-05-25T17:01:16.370Z,9.03
2018-05-25T17:03:44.495Z,8.83
2018-05-25T17:06:12.622Z,9.27
2018-05-25T17:08:40.749Z,9.00
2018-05-25T17:11:08.894Z,9.53
2018-05-25T17:13:37.023Z,9.67
2018-05-25T17:16:05.169Z,9.80
2018-05-25T17:18:33.299Z,8.63
2018-05-25T17:21:01.475Z,11.93
2018-05-25T17:23:29.577Z,15.50
2018-05-25T17:25:57.718Z,10.53
2018-05-25T17:28:29.364Z,10.20
2018-05-25T17:30:57.529Z,9.07
2018-05-25T17:33:25.684Z,8.20
2018-05-25T17:35:53.806Z,9.80
2018-05-25T17:38:25.671Z,9.43
2018-05-25T17:40:53.811Z,8.40
2018-05-25T17:43:28.335Z,7.93
2018-05-25T17:45:56.436Z,8.23
2018-05-25T17:48:24.538Z,9.50
2018-05-25T17:50:52.689Z,10.73
2018-05-25T17:53:20.805Z,8.73
2018-05-25T17:55:48.944Z,8.67
2018-05-25T17:58:17.094Z,10.17
2018-05-25T18:00:45.223Z,8.50
2018-05-25T18:03:13.418Z,8.70
2018-05-25T18:05:41.501Z,9.70
2018-05-25T18:08:09.610Z,8.40
2018-05-25T18:10:37.718Z,8.07
2018-05-25T18:13:05.871Z,9.50
2018-05-25T18:15:37.360Z,9.20
2018-05-25T18:18:05.498Z,8.33
2018-05-25T18:20:33.618Z,8.57
2018-05-25T18:23:01.850Z,8.30
2018-05-25T18:25:29.947Z,8.00
2018-05-25T18:27:58.091Z,9.00
2018-05-25T18:30:26.187Z,8.40
2018-05-25T18:32:54.294Z,9.03
2018-05-25T18:35:22.431Z,8.50
2018-05-25T18:37:50.563Z,8.80
2018-05-25T18:40:18.705Z,7.63
2018-05-25T18:42:46.875Z,8.33
2018-05-25T18:45:15.042Z,8.37
2018-05-25T18:47:43.162Z,8.27
2018-05-25T18:50:11.280Z,8.40
2018-05-25T18:52:39.379Z,7.87
2018-05-25T18:55:07.482Z,8.23
2018-05-25T18:57:35.613Z,8.50
2018-05-25T19:00:03.735Z,7.20
2018-05-25T19:02:32.166Z,7.87
2018-05-25T19:05:00.309Z,8.40
2018-05-25T19:07:28.447Z,8.57
2018-05-25T19:09:56.547Z,7.30
2018-05-25T19:12:24.717Z,7.73
2018-05-25T19:14:52.771Z,7.87
2018-05-25T19:17:20.912Z,8.77
2018-05-25T19:19:49.085Z,7.50
2018-05-25T19:22:17.184Z,8.57
2018-05-25T19:24:45.320Z,7.27
2018-05-25T19:27:13.454Z,8.13
2018-05-25T19:29:41.567Z,7.87
2018-05-25T19:32:09.674Z,7.63
2018-05-25T19:34:37.809Z,8.60
2018-05-25T19:37:05.912Z,7.40
2018-05-25T19:39:34.025Z,8.53
2018-05-25T19:42:02.150Z,7.93
2018-05-25T19:44:30.298Z,7.77
2018-05-25T19:47:02.036Z,7.93
2018-05-25T19:49:30.169Z,7.43
2018-05-25T19:51:58.293Z,7.63
2018-05-25T19:54:26.405Z,9.80
2018-05-25T19:56:54.536Z,8.23
2018-05-25T19:59:22.636Z,8.40
2018-05-25T20:01:50.734Z,8.23
2018-05-25T20:04:18.878Z,7.77
2018-05-25T20:06:47.011Z,7.10
2018-05-25T20:09:15.132Z,7.57
2018-05-25T20:11:43.257Z,7.63
2018-05-25T20:14:11.402Z,13.43
2018-05-25T20:16:39.518Z,8.10
2018-05-25T20:19:07.641Z,8.57
2018-05-25T20:21:35.886Z,8.47
2018-05-25T20:24:04.010Z,7.63
2018-05-25T20:26:32.138Z,9.57
2018-05-25T20:29:00.250Z,8.10
2018-05-25T20:31:31.558Z,7.20
2018-05-25T20:33:59.711Z,11.33
2018-05-25T20:36:27.846Z,8.37
2018-05-25T20:38:55.956Z,8.70
2018-05-25T20:41:24.104Z,9.97
2018-05-25T20:43:52.224Z,9.37
2018-05-25T20:46:20.348Z,10.43
2018-05-25T20:48:48.484Z,8.80
2018-05-25T20:51:16.620Z,8.13
2018-05-25T20:53:44.742Z,10.40
2018-05-25T20:56:12.891Z,10.63
2018-05-25T20:58:41.018Z,10.03
2018-05-25T21:01:09.183Z,11.37
2018-05-25T21:03:37.495Z,9.20
2018-05-25T21:06:05.621Z,10.07
2018-05-25T21:08:33.737Z,9.33
2018-05-25T21:11:01.889Z,9.13
2018-05-25T21:13:29.997Z,9.70
2018-05-25T21:15:58.117Z,9.13
2018-05-25T21:18:26.413Z,8.50
2018-05-25T21:20:54.532Z,9.43
2018-05-25T21:23:22.675Z,8.73
2018-05-25T21:25:50.806Z,9.00
2018-05-25T21:28:19.107Z,10.07
2018-05-25T21:30:47.225Z,9.63
2018-05-25T21:33:15.357Z,9.33
2018-05-25T21:35:43.477Z,9.70
2018-05-25T21:38:11.616Z,11.33
2018-05-25T21:40:39.743Z,11.93
2018-05-25T21:43:07.851Z,11.20
2018-05-25T21:45:35.985Z,12.73
2018-05-25T21:48:04.125Z,10.93
2018-05-25T21:50:32.266Z,11.80
2018-05-25T21:53:00.374Z,15.33
2018-05-25T21:55:28.527Z,10.80
2018-05-25T21:58:00.350Z,12.83
2018-05-25T22:00:30.162Z,12.97
2018-05-25T22:02:58.315Z,11.87
2018-05-25T22:05:26.454Z,13.70
2018-05-25T22:07:54.786Z,12.27
2018-05-25T22:10:22.895Z,12.23
2018-05-25T22:12:51.011Z,12.77
2018-05-25T22:15:19.161Z,15.30
2018-05-25T22:17:47.285Z,14.40
2018-05-25T22:20:15.414Z,12.40
2018-05-25T22:22:43.655Z,12.97
2018-05-25T22:25:11.879Z,14.47
2018-05-25T22:27:40.050Z,13.80
2018-05-25T22:30:08.189Z,22.33
2018-05-25T22:32:36.447Z,13.93
2018-05-25T22:35:04.444Z,15.67
2018-05-25T22:37:32.687Z,16.37
2018-05-25T22:40:00.841Z,15.83
2018-05-25T22:42:40.846Z,13.83
2018-05-25T22:45:20.713Z,15.27
2018-05-25T22:48:00.694Z,11.43
2018-05-25T22:50:40.674Z,11.03
2018-05-25T22:53:13.818Z,11.47
2018-05-25T22:55:42.068Z,11.33
2018-05-25T22:58:10.207Z,12.17
2018-05-25T23:00:38.344Z,11.00
2018-05-25T23:03:06.450Z,12.80
2018-05-25T23:05:34.567Z,12.97
2018-05-25T23:08:02.798Z,11.27
2018-05-25T23:10:30.967Z,11.80
2018-05-25T23:12:59.169Z,11.63
2018-05-25T23:15:27.403Z,11.70
2018-05-25T23:17:55.638Z,11.33
2018-05-25T23:20:23.889Z,12.50
2018-05-25T23:22:52.299Z,11.13
2018-05-25T23:25:20.406Z,11.03
2018-05-25T23:27:48.546Z,12.93
2018-05-25T23:30:16.703Z,12.30
2018-05-25T23:32:44.848Z,11.37
2018-05-25T23:35:12.969Z,11.10
2018-05-25T23:37:41.127Z,12.30
2018-05-25T23:40:09.231Z,11.40
2018-05-25T23:42:37.385Z,12.73
2018-05-25T23:45:05.707Z,11.27
2018-05-25T23:47:33.839Z,11.40
2018-05-25T23:50:01.970Z,12.13
2018-05-25T23:52:30.121Z,11.57
2018-05-25T23:54:58.287Z,11.23
2018-05-25T23:57:26.390Z,12.63
2018-05-25T23:59:54.544Z,11.90
